Time;durP1;ratioP1;P1;durP2;ratioP2;P2;SDS_P1;SDS_P2;PMS_P1;PMS_P2;Temp;Humidity;BMP_temperature;BMP_pressure;BME280_temperature;BME280_humidity;BME280_pressure;Samples;Min_cycle;Max_cycle;Signal;HPM_P1;HPM_P2
2023/09/11 00:01:22;;;;;;;8.25;4.75;;;17.00;99.90;;;;;;4929971;29;20193;-88
2023/09/11 00:03:53;;;;;;;7.65;4.63;;;17.10;99.90;;;;;;4929870;29;20201;-86
2023/09/11 00:06:24;;;;;;;4.85;3.85;;;17.20;99.90;;;;;;4927584;29;20208;-87
2023/09/11 00:08:55;;;;;;;6.18;3.97;;;17.20;99.90;;;;;;4932241;29;20232;-87
2023/09/11 00:11:28;;;;;;;6.05;3.90;;;17.30;99.90;;;;;;4928588;29;20222;-88
2023/09/11 00:13:59;;;;;;;5.25;3.58;;;17.30;99.90;;;;;;4922494;29;20204;-87
2023/09/11 00:16:33;;;;;;;6.13;3.40;;;17.40;99.90;;;;;;4924105;29;20200;-87
2023/09/11 00:19:04;;;;;;;6.10;4.03;;;17.50;99.90;;;;;;4922684;29;20232;-88
2023/09/11 00:21:35;;;;;;;8.80;3.72;;;17.60;99.90;;;;;;4933369;29;20193;-88
2023/09/11 00:24:06;;;;;;;7.07;4.03;;;17.70;99.90;;;;;;4927906;29;20241;-90
2023/09/11 00:26:36;;;;;;;7.88;4.45;;;17.70;99.90;;;;;;4925270;29;20208;-88
2023/09/11 00:29:07;;;;;;;5.30;4.07;;;17.80;99.90;;;;;;4917650;29;20209;-88
2023/09/11 00:31:41;;;;;;;5.75;3.88;;;17.90;99.90;;;;;;4909230;29;20213;-85
2023/09/11 00:34:14;;;;;;;5.68;3.55;;;18.00;99.90;;;;;;4932762;29;20346;-86
2023/09/11 00:36:45;;;;;;;5.85;3.63;;;18.10;99.90;;;;;;4935310;29;20271;-86
2023/09/11 00:39:16;;;;;;;5.15;3.50;;;18.20;99.90;;;;;;4935315;29;20589;-87
2023/09/11 00:41:47;;;;;;;4.10;3.20;;;18.30;99.90;;;;;;4935313;29;20287;-86
2023/09/11 00:44:17;;;;;;;4.07;2.80;;;18.50;99.90;;;;;;4935125;29;20204;-86
2023/09/11 00:46:50;;;;;;;5.50;3.70;;;18.60;99.90;;;;;;4934205;29;20211;-86
2023/09/11 00:49:21;;;;;;;4.60;3.22;;;18.60;99.90;;;;;;4934825;29;20202;-86
2023/09/11 00:51:53;;;;;;;5.95;3.35;;;18.70;99.90;;;;;;4942778;29;20232;-86
2023/09/11 00:54:23;;;;;;;4.07;3.28;;;18.80;99.90;;;;;;4939699;29;20219;-87
2023/09/11 00:56:55;;;;;;;4.32;2.95;;;18.90;99.90;;;;;;4944614;29;20200;-87
2023/09/11 00:59:26;;;;;;;4.25;3.00;;;19.00;99.90;;;;;;4953615;29;20211;-87
2023/09/11 01:01:58;;;;;;;5.28;2.80;;;19.10;99.90;;;;;;4935658;29;20209;-87
2023/09/11 01:04:30;;;;;;;3.15;2.63;;;19.20;99.90;;;;;;4916190;29;20208;-86
2023/09/11 01:07:01;;;;;;;5.43;2.63;;;19.40;99.90;;;;;;4915987;29;20201;-87
2023/09/11 01:09:32;;;;;;;4.20;2.60;;;19.40;99.20;;;;;;4918027;29;20201;-86
2023/09/11 01:12:03;;;;;;;4.35;2.67;;;19.20;98.60;;;;;;4934909;29;20672;-85
2023/09/11 01:14:34;;;;;;;5.63;2.88;;;19.30;97.90;;;;;;4935072;29;20200;-87
2023/09/11 01:17:14;;;;;;;3.78;2.63;;;19.10;98.10;;;;;;4933861;29;20551;-86
2023/09/11 01:20:14;;;;;;;4.13;2.80;;;19.30;99.20;;;;;;4922209;29;20690;-86
2023/09/11 01:23:04;;;;;;;2.72;2.50;;;19.60;98.80;;;;;;4916081;29;20205;-86
2023/09/11 01:26:02;;;;;;;5.50;2.80;;;19.60;97.20;;;;;;4943015;29;20648;-86
2023/09/11 01:29:05;;;;;;;3.67;2.50;;;19.70;96.90;;;;;;4953870;29;20728;-86
2023/09/11 01:31:37;;;;;;;7.15;2.95;;;19.80;95.70;;;;;;4946511;29;20200;-87
2023/09/11 01:34:08;;;;;;;6.68;2.67;;;19.90;95.00;;;;;;4933638;29;20236;-86
2023/09/11 01:36:39;;;;;;;3.97;2.50;;;20.00;94.90;;;;;;4933212;29;20200;-87
2023/09/11 01:39:11;;;;;;;4.22;2.30;;;20.10;94.60;;;;;;4934778;29;20271;-87
2023/09/11 01:41:45;;;;;;;4.03;2.40;;;20.20;92.40;;;;;;4927409;29;20200;-87
2023/09/11 01:44:27;;;;;;;2.60;2.10;;;20.20;92.40;;;;;;4934427;29;20207;-86
2023/09/11 01:47:00;;;;;;;5.53;2.50;;;20.20;92.40;;;;;;4934332;29;20200;-87
2023/09/11 01:49:32;;;;;;;4.28;2.55;;;20.30;91.00;;;;;;4933027;29;20200;-86
2023/09/11 01:52:04;;;;;;;3.17;2.30;;;20.30;91.70;;;;;;4934075;29;20291;-87
2023/09/11 01:54:35;;;;;;;3.85;2.50;;;20.40;91.90;;;;;;4933504;29;20223;-86
2023/09/11 01:57:08;;;;;;;2.92;2.10;;;20.40;90.80;;;;;;4934178;29;20212;-86
2023/09/11 01:59:40;;;;;;;3.00;1.98;;;20.50;90.70;;;;;;4926099;29;20256;-86
2023/09/11 02:02:11;;;;;;;4.40;2.00;;;20.70;90.60;;;;;;4934114;29;20204;-86
2023/09/11 02:04:42;;;;;;;3.67;2.15;;;20.80;89.10;;;;;;4944998;29;20196;-87
2023/09/11 02:07:13;;;;;;;2.72;1.85;;;20.90;88.40;;;;;;4942218;29;20207;-86
2023/09/11 02:09:43;;;;;;;5.15;2.50;;;21.10;86.80;;;;;;4934285;29;20636;-87
2023/09/11 02:12:14;;;;;;;4.00;2.35;;;20.90;85.80;;;;;;4915925;29;20213;-87
2023/09/11 02:14:47;;;;;;;2.55;2.10;;;21.00;85.70;;;;;;4921480;29;20194;-86
2023/09/11 02:17:17;;;;;;;3.55;2.55;;;21.10;84.50;;;;;;4915150;29;20216;-87
2023/09/11 02:19:48;;;;;;;6.05;2.20;;;21.20;84.20;;;;;;4915541;29;20202;-86
2023/09/11 02:22:19;;;;;;;5.05;2.20;;;21.40;84.60;;;;;;4916216;29;20194;-87
2023/09/11 02:24:51;;;;;;;2.58;1.92;;;21.60;82.00;;;;;;4922436;29;20729;-86
2023/09/11 02:27:22;;;;;;;6.82;4.53;;;21.80;81.30;;;;;;4940165;29;20296;-87
2023/09/11 02:29:55;;;;;;;7.72;4.53;;;21.90;85.60;;;;;;4932409;29;20197;-87
2023/09/11 02:32:27;;;;;;;4.50;4.00;;;21.70;85.90;;;;;;4949853;29;20197;-87
2023/09/11 02:34:58;;;;;;;5.55;3.45;;;21.60;87.70;;;;;;4942667;29;20243;-87
2023/09/11 02:37:29;;;;;;;4.38;3.00;;;21.80;84.00;;;;;;4933888;29;20532;-87
2023/09/11 02:40:05;;;;;;;5.30;3.17;;;21.80;84.30;;;;;;4934193;29;20200;-87
2023/09/11 02:42:35;;;;;;;5.95;3.67;;;22.00;82.60;;;;;;4934030;29;20699;-88
2023/09/11 02:45:12;;;;;;;5.95;4.50;;;22.10;86.40;;;;;;4925472;29;20205;-87
2023/09/11 02:47:42;;;;;;;5.65;4.22;;;22.10;88.70;;;;;;4919307;29;20200;-87
2023/09/11 02:50:13;;;;;;;5.82;4.65;;;22.00;89.90;;;;;;4926251;29;20205;-87
2023/09/11 02:52:44;;;;;;;7.93;5.20;;;22.00;91.20;;;;;;4937727;29;20210;-88
2023/09/11 02:55:15;;;;;;;9.75;5.22;;;22.20;91.80;;;;;;4937806;29;20584;-88
2023/09/11 02:57:45;;;;;;;5.32;4.57;;;22.30;92.40;;;;;;4941049;29;20204;-87
2023/09/11 03:00:20;;;;;;;6.40;4.43;;;22.40;92.60;;;;;;4938368;29;20215;-86
2023/09/11 03:02:51;;;;;;;5.68;4.63;;;22.40;92.60;;;;;;4937430;29;20211;-86
2023/09/11 03:05:21;;;;;;;8.05;4.65;;;22.50;93.10;;;;;;4937891;29;20223;-86
2023/09/11 03:07:53;;;;;;;5.07;3.92;;;22.30;92.80;;;;;;4938305;29;20212;-87
2023/09/11 03:10:24;;;;;;;4.63;4.10;;;22.20;92.80;;;;;;4947665;29;20208;-87
2023/09/11 03:12:56;;;;;;;3.90;3.50;;;22.30;92.70;;;;;;4940930;29;20251;-86
2023/09/11 03:15:31;;;;;;;5.05;3.45;;;22.30;92.70;;;;;;4936601;29;20588;-87
2023/09/11 03:18:01;;;;;;;4.80;3.67;;;22.40;93.50;;;;;;4935382;29;20223;-87
2023/09/11 03:20:32;;;;;;;4.93;4.13;;;22.40;93.30;;;;;;4917677;29;20654;-87
2023/09/11 03:23:03;;;;;;;7.63;4.22;;;22.30;92.60;;;;;;4918209;29;20201;-87
2023/09/11 03:25:37;;;;;;;4.90;3.80;;;22.30;90.70;;;;;;4925026;29;20572;-86
2023/09/11 03:28:09;;;;;;;5.43;3.30;;;22.40;90.90;;;;;;4936929;29;20196;-86
2023/09/11 03:30:41;;;;;;;5.78;3.90;;;22.40;90.30;;;;;;4936796;29;20664;-87
2023/09/11 03:33:12;;;;;;;4.43;3.47;;;22.40;89.90;;;;;;4936854;29;20196;-86
2023/09/11 03:35:43;;;;;;;4.72;3.05;;;22.50;89.10;;;;;;4934898;29;20201;-88
2023/09/11 03:38:13;;;;;;;3.40;2.75;;;22.30;88.50;;;;;;4936516;29;20213;-86
2023/09/11 03:40:48;;;;;;;4.50;3.05;;;22.30;88.60;;;;;;4936441;29;20551;-88
2023/09/11 03:43:19;;;;;;;3.33;2.70;;;22.30;87.10;;;;;;4936414;29;20203;-86
2023/09/11 03:45:52;;;;;;;4.43;2.75;;;22.20;86.70;;;;;;4935437;29;20200;-87
2023/09/11 03:48:22;;;;;;;5.03;2.60;;;22.20;87.40;;;;;;4936642;29;20298;-86
2023/09/11 03:50:53;;;;;;;5.28;2.83;;;22.20;87.50;;;;;;4936289;29;20603;-87
2023/09/11 03:53:24;;;;;;;4.20;2.40;;;22.20;85.80;;;;;;4925967;29;20217;-88
2023/09/11 03:55:56;;;;;;;4.28;2.60;;;22.20;84.20;;;;;;4921901;29;20208;-86
2023/09/11 03:58:27;;;;;;;6.00;2.15;;;22.10;83.40;;;;;;4936114;29;20227;-86
2023/09/11 04:01:01;;;;;;;2.75;1.90;;;22.00;81.90;;;;;;4935234;29;20209;-87
2023/09/11 04:03:32;;;;;;;2.40;2.20;;;21.90;82.90;;;;;;4933630;29;20217;-89
2023/09/11 04:06:02;;;;;;;4.20;1.95;;;21.90;82.60;;;;;;4933754;29;20204;-88
2023/09/11 04:08:33;;;;;;;3.30;1.90;;;21.80;82.80;;;;;;4922995;29;20248;-87
2023/09/11 04:11:04;;;;;;;2.78;1.80;;;21.80;81.70;;;;;;4934678;29;20645;-87
2023/09/11 04:13:35;;;;;;;3.83;1.75;;;21.60;80.50;;;;;;4935815;29;20204;-86
2023/09/11 04:16:09;;;;;;;3.90;1.60;;;21.40;81.80;;;;;;4936771;29;20196;-87
2023/09/11 04:18:40;;;;;;;2.10;1.63;;;21.50;81.90;;;;;;4950091;29;20209;-86
2023/09/11 04:21:10;;;;;;;2.72;1.70;;;21.40;81.40;;;;;;4939391;29;20579;-87
2023/09/11 04:23:42;;;;;;;2.20;1.50;;;21.40;81.40;;;;;;4927012;29;20491;-87
2023/09/11 04:26:12;;;;;;;2.47;1.20;;;21.30;80.20;;;;;;4918982;29;20568;-87
2023/09/11 04:28:43;;;;;;;3.55;1.25;;;21.30;80.80;;;;;;4935522;29;20205;-87
2023/09/11 04:31:16;;;;;;;4.10;1.42;;;21.30;80.60;;;;;;4944517;29;20286;-87
2023/09/11 04:33:47;;;;;;;3.30;1.17;;;21.20;79.70;;;;;;4936918;29;20229;-91
2023/09/11 04:36:17;;;;;;;1.58;1.20;;;21.00;78.70;;;;;;4921566;29;20601;-88
2023/09/11 04:38:48;;;;;;;3.22;1.30;;;21.10;79.90;;;;;;4923036;29;20236;-90
2023/09/11 04:41:19;;;;;;;1.45;1.10;;;21.10;82.30;;;;;;4926023;29;20204;-89
2023/09/11 04:43:49;;;;;;;2.08;1.20;;;21.10;81.30;;;;;;4933910;29;20655;-90
2023/09/11 04:46:22;;;;;;;3.13;1.30;;;21.10;82.60;;;;;;4930499;29;20204;-89
2023/09/11 04:48:54;;;;;;;1.50;1.10;;;21.10;83.80;;;;;;4936254;29;20658;-89
2023/09/11 04:51:25;;;;;;;2.15;1.48;;;21.10;85.20;;;;;;4936138;29;20200;-88
2023/09/11 04:53:55;;;;;;;3.40;1.20;;;21.00;87.10;;;;;;4935352;29;20204;-89
2023/09/11 04:56:26;;;;;;;2.47;1.00;;;21.10;88.60;;;;;;4929956;29;20205;-89
2023/09/11 04:58:57;;;;;;;2.72;1.23;;;21.10;88.30;;;;;;4946742;29;20603;-89
2023/09/11 05:01:29;;;;;;;5.20;1.25;;;21.00;89.80;;;;;;4937099;29;20215;-89
2023/09/11 05:04:00;;;;;;;2.05;1.33;;;20.80;89.90;;;;;;4934422;29;20231;-89
2023/09/11 05:06:31;;;;;;;3.65;1.05;;;20.80;91.10;;;;;;4917271;29;20244;-89
2023/09/11 05:09:02;;;;;;;3.65;1.20;;;20.80;91.20;;;;;;4930998;29;20642;-88
2023/09/11 05:11:33;;;;;;;3.03;1.40;;;20.70;91.60;;;;;;4916444;29;20252;-88
2023/09/11 05:14:04;;;;;;;4.53;1.13;;;20.60;92.30;;;;;;4927086;29;20686;-88
2023/09/11 05:16:37;;;;;;;2.30;1.30;;;20.60;92.80;;;;;;4927089;29;20203;-86
2023/09/11 05:19:07;;;;;;;3.30;1.30;;;20.70;93.00;;;;;;4917933;29;20236;-86
2023/09/11 05:21:38;;;;;;;2.80;1.40;;;20.70;93.40;;;;;;4908285;29;20700;-89
2023/09/11 05:24:09;;;;;;;4.20;1.65;;;20.60;93.80;;;;;;4944719;29;20205;-88
2023/09/11 05:26:40;;;;;;;2.80;1.48;;;20.50;93.90;;;;;;4930251;29;20200;-87
2023/09/11 05:29:10;;;;;;;1.98;1.30;;;20.50;94.60;;;;;;4942584;29;20204;-87
2023/09/11 05:31:43;;;;;;;3.33;1.63;;;20.50;95.30;;;;;;4918783;29;20205;-87
2023/09/11 05:34:15;;;;;;;3.58;1.58;;;20.50;95.80;;;;;;4921519;29;20229;-88
2023/09/11 05:36:46;;;;;;;5.07;1.55;;;20.50;96.20;;;;;;4924188;29;20193;-87
2023/09/11 05:39:22;;;;;;;5.18;1.42;;;20.50;95.90;;;;;;4923326;29;20229;-87
2023/09/11 05:41:53;;;;;;;3.75;1.67;;;20.50;95.60;;;;;;4938896;29;20279;-88
2023/09/11 05:44:24;;;;;;;4.38;1.42;;;20.40;95.70;;;;;;4930178;29;20202;-86
2023/09/11 05:46:56;;;;;;;5.82;1.70;;;20.40;95.90;;;;;;4924667;29;20197;-87
2023/09/11 05:49:45;;;;;;;2.45;1.40;;;20.40;96.20;;;;;;4945828;28;20215;-88
2023/09/11 05:52:15;;;;;;;4.55;1.30;;;20.50;96.20;;;;;;4929998;29;20261;-87
2023/09/11 05:54:46;;;;;;;2.78;1.30;;;20.60;96.00;;;;;;4925586;29;20572;-86
2023/09/11 05:57:17;;;;;;;4.03;1.55;;;20.60;96.20;;;;;;4934464;29;20706;-87
2023/09/11 05:59:48;;;;;;;4.30;1.52;;;20.60;96.30;;;;;;4934030;29;20711;-88
2023/09/11 06:02:20;;;;;;;5.85;1.48;;;20.60;97.00;;;;;;4934518;29;20583;-88
2023/09/11 06:04:51;;;;;;;2.90;1.50;;;20.70;97.20;;;;;;4934414;29;20714;-86
2023/09/11 06:07:22;;;;;;;3.53;1.70;;;20.70;96.90;;;;;;4930466;29;20204;-87
2023/09/11 06:09:53;;;;;;;3.78;1.55;;;20.80;97.40;;;;;;4921058;29;20209;-86
2023/09/11 06:12:29;;;;;;;2.92;1.38;;;20.90;97.10;;;;;;4925821;29;20212;-87
2023/09/11 06:15:00;;;;;;;4.38;1.42;;;21.20;96.10;;;;;;4934754;29;20263;-86
2023/09/11 06:17:33;;;;;;;1.95;1.30;;;21.20;96.30;;;;;;4933913;29;20189;-87
2023/09/11 06:20:08;;;;;;;2.17;1.50;;;21.30;96.20;;;;;;4933182;29;20594;-87
2023/09/11 06:22:39;;;;;;;1.95;1.20;;;21.30;95.70;;;;;;4928889;29;20219;-86
2023/09/11 06:25:13;;;;;;;4.45;1.40;;;21.40;95.40;;;;;;4931285;29;20193;-87
2023/09/11 06:27:44;;;;;;;2.67;1.38;;;21.40;95.20;;;;;;4920670;29;20645;-86
2023/09/11 06:30:15;;;;;;;2.25;1.30;;;21.50;94.20;;;;;;4931029;29;20207;-85
2023/09/11 06:32:51;;;;;;;2.88;1.25;;;21.60;94.50;;;;;;4955117;29;20192;-85
2023/09/11 06:35:22;;;;;;;2.55;1.20;;;21.50;93.90;;;;;;4926579;29;20228;-85
2023/09/11 06:37:52;;;;;;;2.30;1.30;;;21.50;94.60;;;;;;4933017;29;20254;-83
2023/09/11 06:40:23;;;;;;;1.42;1.00;;;21.50;94.50;;;;;;4933628;29;20289;-82
2023/09/11 06:42:54;;;;;;;3.28;1.33;;;21.60;94.20;;;;;;4926889;29;20216;-83
2023/09/11 06:45:25;;;;;;;4.35;1.35;;;21.70;93.70;;;;;;4914589;29;20193;-84
2023/09/11 06:47:58;;;;;;;1.88;1.13;;;21.70;92.90;;;;;;4914827;29;20216;-82
2023/09/11 06:50:29;;;;;;;1.80;1.30;;;21.70;92.50;;;;;;4914750;29;20296;-82
2023/09/11 06:53:00;;;;;;;2.45;1.30;;;21.70;92.80;;;;;;4914648;29;20564;-82
2023/09/11 06:55:30;;;;;;;3.50;1.38;;;21.60;93.00;;;;;;4928537;29;20208;-82
2023/09/11 06:58:03;;;;;;;2.05;1.17;;;21.40;93.70;;;;;;4919242;29;20201;-81
2023/09/11 07:00:34;;;;;;;2.50;1.30;;;21.40;94.20;;;;;;4926913;29;20301;-82
2023/09/11 07:03:07;;;;;;;2.67;1.45;;;21.20;95.10;;;;;;4928156;29;20218;-82
2023/09/11 07:05:39;;;;;;;3.42;1.50;;;21.00;95.70;;;;;;4931076;29;20292;-81
2023/09/11 07:08:10;;;;;;;2.78;1.70;;;20.80;96.70;;;;;;4932584;29;20211;-82
2023/09/11 07:10:40;;;;;;;2.08;1.50;;;20.60;97.60;;;;;;4924893;29;20197;-81
2023/09/11 07:13:11;;;;;;;3.30;1.83;;;20.30;98.90;;;;;;4934043;29;20217;-81
2023/09/11 07:15:42;;;;;;;4.25;1.92;;;20.10;99.90;;;;;;4933380;29;20207;-81
2023/09/11 07:18:15;;;;;;;3.03;1.55;;;19.90;99.90;;;;;;4925492;29;20644;-81
2023/09/11 07:20:49;;;;;;;4.25;2.03;;;19.70;99.90;;;;;;4914689;29;20229;-81
2023/09/11 07:23:20;;;;;;;3.40;1.98;;;19.60;99.90;;;;;;4926547;29;20643;-82
2023/09/11 07:25:51;;;;;;;6.70;2.35;;;19.40;99.90;;;;;;4932694;29;20205;-81
2023/09/11 07:28:24;;;;;;;2.03;1.70;;;19.30;99.90;;;;;;4932061;29;20576;-82
2023/09/11 07:30:55;;;;;;;12.35;8.98;;;19.20;99.90;;;;;;4933842;29;20200;-82
2023/09/11 07:33:29;;;;;;;26.50;20.25;;;19.10;99.90;;;;;;4920795;29;20209;-81
2023/09/11 07:36:01;;;;;;;15.18;11.05;;;19.00;99.90;;;;;;4928870;29;20215;-81
2023/09/11 07:38:33;;;;;;;8.77;5.88;;;18.90;99.90;;;;;;4952573;29;20193;-81
2023/09/11 07:41:03;;;;;;;4.97;3.20;;;18.80;99.90;;;;;;4949764;29;20231;-80
2023/09/11 07:43:35;;;;;;;4.93;2.88;;;18.70;99.90;;;;;;4930678;29;20576;-82
2023/09/11 07:46:05;;;;;;;5.03;2.97;;;18.50;99.90;;;;;;4928927;29;20202;-82
2023/09/11 07:48:39;;;;;;;3.17;2.35;;;18.40;99.90;;;;;;4917230;29;20205;-82
2023/09/11 07:51:12;;;;;;;3.78;2.05;;;18.40;99.90;;;;;;4918357;29;20216;-83
2023/09/11 07:53:42;;;;;;;4.18;2.60;;;18.30;99.90;;;;;;4931062;29;20201;-81
2023/09/11 07:56:14;;;;;;;2.70;2.38;;;18.30;99.90;;;;;;4934579;29;20193;-81
2023/09/11 07:58:45;;;;;;;3.97;2.00;;;18.20;99.90;;;;;;4932897;29;20197;-81
2023/09/11 08:01:16;;;;;;;5.35;2.40;;;18.20;99.90;;;;;;4918053;29;20231;-81
2023/09/11 08:03:49;;;;;;;4.63;2.67;;;18.10;99.90;;;;;;4916531;29;20218;-81
2023/09/11 08:06:20;;;;;;;4.45;2.20;;;18.00;99.90;;;;;;4916819;29;20616;-83
2023/09/11 08:08:51;;;;;;;4.70;3.22;;;18.00;99.90;;;;;;4920852;29;20213;-83
2023/09/11 08:11:23;;;;;;;4.30;2.70;;;18.00;99.90;;;;;;4930817;29;20205;-84
2023/09/11 08:13:53;;;;;;;3.92;3.00;;;17.90;99.90;;;;;;4936595;29;20228;-83
2023/09/11 08:16:24;;;;;;;5.30;3.55;;;17.90;99.90;;;;;;4936156;29;20205;-83
2023/09/11 08:18:57;;;;;;;9.40;6.82;;;18.00;99.90;;;;;;4936448;29;20201;-83
2023/09/11 08:21:28;;;;;;;4.80;3.08;;;17.90;99.90;;;;;;4933986;29;20719;-85
2023/09/11 08:24:01;;;;;;;3.85;2.40;;;17.90;99.90;;;;;;4918018;29;20193;-83
2023/09/11 08:26:32;;;;;;;4.72;3.45;;;17.90;99.90;;;;;;4931162;29;20197;-83
2023/09/11 08:29:03;;;;;;;4.22;2.80;;;17.90;99.90;;;;;;4933632;29;20691;-82
2023/09/11 08:31:35;;;;;;;5.63;2.80;;;17.80;99.90;;;;;;4929576;29;20615;-84
2023/09/11 08:34:08;;;;;;;9.20;3.65;;;17.80;99.90;;;;;;4936886;29;20236;-84
2023/09/11 08:36:39;;;;;;;4.45;2.92;;;17.80;99.90;;;;;;4936573;29;20201;-82
2023/09/11 08:39:09;;;;;;;3.72;2.58;;;17.80;99.90;;;;;;4936975;29;20212;-82
2023/09/11 08:41:41;;;;;;;6.22;2.67;;;17.80;99.90;;;;;;4935472;29;20719;-84
2023/09/11 08:44:12;;;;;;;4.82;2.55;;;17.80;99.90;;;;;;4947994;29;20206;-82
2023/09/11 08:46:46;;;;;;;3.33;2.58;;;17.70;99.90;;;;;;4936294;29;20213;-82
2023/09/11 08:49:20;;;;;;;4.97;2.50;;;17.70;99.90;;;;;;4920131;29;20204;-83
2023/09/11 08:51:53;;;;;;;3.50;2.40;;;17.60;99.90;;;;;;4938802;29;20325;-84
2023/09/11 08:54:27;;;;;;;4.15;2.10;;;17.60;99.90;;;;;;4938407;29;20185;-84
2023/09/11 08:57:00;;;;;;;3.25;2.45;;;17.60;99.90;;;;;;4954193;29;20625;-83
2023/09/11 08:59:36;;;;;;;4.50;3.00;;;17.60;99.90;;;;;;4951732;29;20205;-83
2023/09/11 09:02:07;;;;;;;5.00;3.15;;;17.60;99.90;;;;;;4956986;29;20271;-82
2023/09/11 09:04:43;;;;;;;4.72;2.88;;;17.60;99.90;;;;;;4937105;29;20200;-83
2023/09/11 09:07:14;;;;;;;3.88;2.80;;;17.50;99.90;;;;;;4934405;29;20277;-83
2023/09/11 09:09:45;;;;;;;5.72;3.22;;;17.50;99.90;;;;;;4937645;29;20201;-83
2023/09/11 09:12:16;;;;;;;4.07;3.20;;;17.50;99.90;;;;;;4937214;29;20201;-82
2023/09/11 09:14:48;;;;;;;6.00;2.83;;;17.50;99.90;;;;;;4926606;29;20200;-84
2023/09/11 09:17:19;;;;;;;3.83;2.55;;;17.40;99.90;;;;;;4933310;29;20283;-82
2023/09/11 09:19:52;;;;;;;6.43;2.65;;;17.40;99.90;;;;;;4935868;29;20215;-82
2023/09/11 09:22:22;;;;;;;3.67;2.22;;;17.40;99.90;;;;;;4935923;29;20229;-83
2023/09/11 09:24:57;;;;;;;4.30;2.60;;;17.40;99.90;;;;;;4936038;29;20197;-83
2023/09/11 09:27:30;;;;;;;4.75;2.70;;;17.40;99.90;;;;;;4926208;29;20193;-83
2023/09/11 09:30:01;;;;;;;5.85;2.70;;;17.40;99.90;;;;;;4928409;29;20205;-84
2023/09/11 09:32:36;;;;;;;3.85;2.60;;;17.40;99.90;;;;;;4926628;29;20202;-83
2023/09/11 09:35:10;;;;;;;4.00;2.58;;;17.40;99.90;;;;;;4929115;29;20228;-83
2023/09/11 09:37:41;;;;;;;5.30;2.60;;;17.30;99.90;;;;;;4924044;29;20209;-84
2023/09/11 09:40:13;;;;;;;4.53;2.40;;;17.30;99.90;;;;;;4917169;29;20236;-89
2023/09/11 09:42:44;;;;;;;3.70;2.33;;;17.30;99.90;;;;;;4916984;29;20539;-89
2023/09/11 09:45:33;;;;;;;3.90;2.40;;;17.30;99.90;;;;;;4917060;29;20221;-87
2023/09/11 09:48:21;;;;;;;3.45;2.05;;;17.30;99.90;;;;;;4927422;29;20645;-90
2023/09/11 09:51:04;;;;;;;3.33;2.30;;;17.30;99.90;;;;;;4946973;28;20209;-89
2023/09/11 09:53:36;;;;;;;3.65;2.40;;;17.20;99.90;;;;;;4940747;29;20211;-89
2023/09/11 09:56:08;;;;;;;4.55;2.80;;;17.30;99.90;;;;;;4935249;29;20236;-89
2023/09/11 09:58:39;;;;;;;4.40;2.40;;;17.20;99.90;;;;;;4913769;29;20220;-90
2023/09/11 10:01:11;;;;;;;3.50;2.30;;;17.20;99.90;;;;;;4916875;29;20225;-90
2023/09/11 10:03:43;;;;;;;3.08;2.35;;;17.20;99.90;;;;;;4920461;29;20198;-89
2023/09/11 10:06:20;;;;;;;3.97;2.38;;;17.20;99.90;;;;;;4931132;29;20215;-89
2023/09/11 10:09:06;;;;;;;4.88;2.50;;;17.20;99.90;;;;;;4917350;29;20676;-88
2023/09/11 10:11:38;;;;;;;7.95;2.50;;;17.20;99.90;;;;;;4921681;29;20574;-90
2023/09/11 10:14:14;;;;;;;5.93;2.63;;;17.20;99.90;;;;;;4925283;29;20200;-89
2023/09/11 10:16:48;;;;;;;3.83;2.60;;;17.20;99.90;;;;;;4935477;29;20200;-89
2023/09/11 10:19:19;;;;;;;3.67;2.45;;;17.20;99.90;;;;;;4934735;29;20189;-88
2023/09/11 10:21:54;;;;;;;6.82;3.03;;;17.20;99.90;;;;;;4917519;29;20237;-90
2023/09/11 10:24:24;;;;;;;4.32;2.45;;;17.20;99.90;;;;;;4923431;29;20209;-90
2023/09/11 10:26:59;;;;;;;4.80;2.70;;;17.20;99.90;;;;;;4916772;29;20208;-91
2023/09/11 10:29:46;;;;;;;5.95;2.85;;;17.20;99.90;;;;;;4916219;29;20245;-89
2023/09/11 10:32:25;;;;;;;5.72;3.25;;;17.20;99.90;;;;;;4933437;29;20206;-91
2023/09/11 10:34:56;;;;;;;7.80;2.58;;;17.10;99.90;;;;;;4926890;29;20626;-90
2023/09/11 10:37:31;;;;;;;5.72;2.80;;;17.10;99.90;;;;;;4934773;29;20204;-91
2023/09/11 10:40:05;;;;;;;4.75;2.92;;;17.10;99.90;;;;;;4935038;29;20192;-92
2023/09/11 10:42:42;;;;;;;4.13;2.65;;;17.10;99.90;;;;;;4930858;29;20212;-91
2023/09/11 10:45:32;;;;;;;11.15;3.67;;;17.10;99.90;;;;;;4938295;29;20264;-91
2023/09/11 10:48:03;;;;;;;5.05;3.00;;;17.10;99.90;;;;;;4935433;29;20288;-90
2023/09/11 10:50:37;;;;;;;5.30;2.92;;;17.10;99.90;;;;;;4935612;29;20208;-92
2023/09/11 10:53:12;;;;;;;7.10;3.10;;;17.00;99.90;;;;;;4935082;29;20200;-92
2023/09/11 10:55:42;;;;;;;8.77;2.78;;;17.00;99.90;;;;;;4942502;29;20214;-88
2023/09/11 10:58:14;;;;;;;5.38;2.72;;;17.00;99.90;;;;;;4952910;28;20218;-90
2023/09/11 11:00:45;;;;;;;5.07;2.75;;;17.00;99.90;;;;;;4938358;29;20227;-89
2023/09/11 11:03:18;;;;;;;12.70;3.78;;;17.00;99.90;;;;;;4930091;29;20261;-89
2023/09/11 11:05:50;;;;;;;11.90;3.90;;;16.90;99.90;;;;;;4915788;29;20204;-87
2023/09/11 11:08:25;;;;;;;9.95;4.25;;;16.90;99.90;;;;;;4934231;29;20205;-88
2023/09/11 11:11:00;;;;;;;7.32;3.70;;;16.90;99.90;;;;;;4939571;29;20259;-88
2023/09/11 11:13:31;;;;;;;10.10;4.20;;;16.90;99.90;;;;;;4946259;29;20206;-88
2023/09/11 11:16:27;;;;;;;9.57;3.83;;;16.80;99.90;;;;;;4922561;29;20695;-88
2023/09/11 11:19:00;;;;;;;5.30;3.15;;;16.80;99.90;;;;;;4927505;29;20623;-87
2023/09/11 11:21:41;;;;;;;5.85;3.20;;;16.80;99.90;;;;;;4920250;29;20225;-88
2023/09/11 11:24:17;;;;;;;5.22;3.20;;;16.80;99.90;;;;;;4924666;29;20196;-86
2023/09/11 11:26:48;;;;;;;4.28;2.83;;;16.70;99.90;;;;;;4929968;29;20201;-86
2023/09/11 11:29:19;;;;;;;7.38;3.35;;;16.80;99.90;;;;;;4935108;29;20184;-86
2023/09/11 11:31:54;;;;;;;7.78;3.00;;;16.70;99.90;;;;;;4933050;29;20559;-85
2023/09/11 11:34:32;;;;;;;6.05;2.70;;;16.70;99.90;;;;;;4935666;29;20232;-85
2023/09/11 11:37:03;;;;;;;7.05;2.83;;;16.70;99.90;;;;;;4925991;29;20205;-86
2023/09/11 11:39:39;;;;;;;6.85;2.60;;;16.70;99.90;;;;;;4920602;29;20192;-87
2023/09/11 11:42:10;;;;;;;5.32;2.58;;;16.70;99.90;;;;;;4937113;29;20220;-86
2023/09/11 11:44:42;;;;;;;5.47;2.47;;;16.60;99.90;;;;;;4916966;29;20208;-86
2023/09/11 11:47:13;;;;;;;5.55;2.40;;;16.60;99.90;;;;;;4918965;29;20208;-87
2023/09/11 11:49:44;;;;;;;6.75;2.58;;;16.60;99.90;;;;;;4928216;29;20608;-86
2023/09/11 11:52:15;;;;;;;6.63;2.90;;;16.60;99.90;;;;;;4936404;29;20193;-86
2023/09/11 11:54:51;;;;;;;7.07;3.20;;;16.60;99.90;;;;;;4922171;29;20197;-86
2023/09/11 11:57:24;;;;;;;5.50;3.08;;;16.60;99.90;;;;;;4932541;29;20211;-87
2023/09/11 11:59:54;;;;;;;7.65;3.60;;;16.50;99.90;;;;;;4920391;29;20538;-87
2023/09/11 12:02:27;;;;;;;4.75;2.85;;;16.50;99.90;;;;;;4945672;29;20292;-87
2023/09/11 12:04:58;;;;;;;7.07;3.58;;;16.50;99.90;;;;;;4931552;29;20243;-86
2023/09/11 12:07:29;;;;;;;7.53;3.80;;;16.40;99.90;;;;;;4921098;29;20203;-86
2023/09/11 12:10:03;;;;;;;5.47;3.20;;;16.40;99.90;;;;;;4938515;29;20237;-86
2023/09/11 12:12:34;;;;;;;7.38;3.60;;;16.20;99.90;;;;;;4936647;29;20667;-88
2023/09/11 12:15:05;;;;;;;8.13;3.40;;;16.30;99.90;;;;;;4936458;29;20201;-86
2023/09/11 12:17:36;;;;;;;6.82;3.20;;;16.30;99.90;;;;;;4936493;29;20235;-87
2023/09/11 12:20:14;;;;;;;4.15;3.00;;;16.20;99.90;;;;;;4948175;29;20256;-88
2023/09/11 12:22:49;;;;;;;4.88;3.08;;;16.20;99.90;;;;;;4928007;29;20696;-88
2023/09/11 12:25:23;;;;;;;6.25;3.45;;;16.20;99.90;;;;;;4922905;29;20208;-87
2023/09/11 12:27:55;;;;;;;6.70;3.33;;;16.10;99.90;;;;;;4930556;29;20651;-87
2023/09/11 12:30:26;;;;;;;6.65;4.10;;;16.10;99.90;;;;;;4935183;29;20216;-87
2023/09/11 12:32:56;;;;;;;6.28;3.80;;;16.10;99.90;;;;;;4935661;29;20200;-87
2023/09/11 12:35:35;;;;;;;5.40;3.92;;;16.10;99.90;;;;;;4936218;29;20225;-87
2023/09/11 12:38:10;;;;;;;6.88;3.88;;;16.10;99.90;;;;;;4932902;29;20193;-87
2023/09/11 12:40:44;;;;;;;6.22;3.58;;;16.10;99.90;;;;;;4912964;29;20297;-89
2023/09/11 12:43:15;;;;;;;6.72;3.40;;;16.10;99.90;;;;;;4917672;29;20196;-89
2023/09/11 12:45:46;;;;;;;6.78;3.72;;;16.10;99.90;;;;;;4931512;29;20215;-87
2023/09/11 12:48:17;;;;;;;5.35;4.00;;;16.10;99.90;;;;;;4916088;29;20205;-88
2023/09/11 12:50:48;;;;;;;8.55;4.60;;;16.10;99.90;;;;;;4923724;29;20205;-88
2023/09/11 12:53:19;;;;;;;8.40;4.97;;;16.00;99.90;;;;;;4935077;29;20188;-88
2023/09/11 12:55:54;;;;;;;8.88;5.20;;;16.00;99.90;;;;;;4929961;29;20208;-87
2023/09/11 12:58:25;;;;;;;9.90;4.88;;;15.90;99.90;;;;;;4934964;29;20208;-88
2023/09/11 13:00:56;;;;;;;9.63;5.15;;;15.90;99.90;;;;;;4936288;29;20204;-87
2023/09/11 13:03:31;;;;;;;8.27;4.43;;;15.80;99.90;;;;;;4937019;29;20197;-86
2023/09/11 13:06:02;;;;;;;9.93;4.80;;;15.70;99.90;;;;;;4926922;29;20201;-87
2023/09/11 13:08:33;;;;;;;6.18;4.55;;;15.70;99.90;;;;;;4927987;29;20206;-88
2023/09/11 13:11:06;;;;;;;7.13;4.82;;;15.70;99.90;;;;;;4943941;29;20209;-88
2023/09/11 13:13:40;;;;;;;6.28;4.63;;;15.70;99.90;;;;;;4934982;29;20212;-86